Mayo, Canada
Current Conditions -  °F | °C
As of 8:00 PM on Tuesday 21 Oct 2014 (Local Time) from CYMA Reporting Station
Broken Clouds Broken Clouds  
Wind Chill: 29°   Ceiling: 7000
Heat Index: 36°   Visibility: 20mi
Dew Point: 28°   Wind: 8mph
Humidity: 75%   Direction: 10°N
Pressure: 29.4"   Gusts: NA
Location:  63.6°N, 135.88°W
Report Text: CYMA 220300Z 01007KT 360V060 20SM SCT050 BKN070 02/M02 A2940 RMK SC4AC1 SLP981
Loading
Personal Weather Stations






























Interactive Weather Map
Tropical Storm Tracking
New forecast layout! Learn more

10-Day Weather Forecast

Advertisements
Track Severe Weather on mobile